Time;durP1;ratioP1;P1;durP2;ratioP2;P2;SDS_P1;SDS_P2;PMS_P1;PMS_P2;Temp;Humidity;BMP_temperature;BMP_pressure;BME280_temperature;BME280_humidity;BME280_pressure;Samples;Min_cycle;Max_cycle;Signal;HPM_P1;HPM_P2
2022/08/28 00:00:44;;;;;;;9.27;7.73;;;23.10;81.20;;;-142.21;100.00;112049.66;5052424;28;20598;-75
2022/08/28 00:03:13;;;;;;;10.33;7.77;;;23.10;81.30;;;-142.21;100.00;112049.66;5052489;28;20252;-75
2022/08/28 00:05:42;;;;;;;10.37;8.00;;;23.10;81.20;;;-142.21;100.00;112049.66;5052443;28;20248;-75
2022/08/28 00:08:12;;;;;;;11.17;8.10;;;23.20;80.90;;;-142.21;100.00;112049.66;5052290;28;20261;-75
2022/08/28 00:10:42;;;;;;;13.87;8.60;;;23.20;81.70;;;-142.21;100.00;112049.66;5051703;28;20227;-75
2022/08/28 00:13:17;;;;;;;9.83;8.30;;;23.10;81.20;;;-142.21;100.00;112049.66;5052000;28;20201;-75
2022/08/28 00:15:49;;;;;;;12.70;9.67;;;23.00;81.30;;;-142.21;100.00;112049.66;5052371;28;20607;-75
2022/08/28 00:18:18;;;;;;;11.23;8.80;;;23.00;81.50;;;-142.21;100.00;112049.66;5051459;28;20193;-75
2022/08/28 00:20:46;;;;;;;11.47;8.53;;;22.90;81.80;;;-142.21;100.00;112049.66;5051897;28;20495;-75
2022/08/28 00:23:13;;;;;;;9.70;8.10;;;22.90;81.90;;;-142.21;100.00;112049.66;5052188;28;20205;-75
2022/08/28 00:25:42;;;;;;;14.33;9.37;;;22.90;81.90;;;-142.21;100.00;112049.66;5051211;28;20254;-75
2022/08/28 00:28:11;;;;;;;9.80;8.87;;;23.00;82.00;;;-142.21;100.00;112049.66;5052062;28;20237;-75
2022/08/28 00:30:45;;;;;;;9.67;8.63;;;23.00;82.00;;;-142.21;100.00;112049.66;5051117;28;20234;-74
2022/08/28 00:33:21;;;;;;;10.60;8.60;;;23.10;81.80;;;-142.21;100.00;112049.66;5052186;28;20592;-75
2022/08/28 00:35:49;;;;;;;10.37;8.40;;;23.10;81.90;;;-142.21;100.00;112049.66;5051709;28;20698;-75
2022/08/28 00:38:19;;;;;;;9.77;8.77;;;23.20;81.70;;;-142.21;100.00;112049.66;5051588;28;20213;-75
2022/08/28 00:40:54;;;;;;;14.00;9.00;;;23.20;81.90;;;-142.21;100.00;112049.66;5051669;28;20233;-75
2022/08/28 00:43:34;;;;;;;9.27;8.27;;;23.20;81.80;;;-142.21;100.00;112049.66;5051050;28;20187;-75
2022/08/28 00:46:04;;;;;;;10.17;8.40;;;23.20;81.90;;;-142.21;100.00;112049.66;5051595;28;20240;-75
2022/08/28 00:48:31;;;;;;;9.90;8.77;;;23.30;81.90;;;-142.21;100.00;112049.66;5051007;28;20217;-75
2022/08/28 00:53:45;;;;;;;12.77;9.90;;;23.30;82.00;;;-142.21;100.00;112049.66;5051734;28;20199;-75
2022/08/28 00:56:16;;;;;;;11.73;9.70;;;23.30;81.90;;;-142.21;100.00;112049.66;5051322;28;20249;-75
2022/08/28 00:58:47;;;;;;;12.37;9.80;;;23.30;82.30;;;-142.21;100.00;112049.66;5051397;28;20251;-75
2022/08/28 01:01:15;;;;;;;9.80;8.80;;;23.30;82.50;;;-142.21;100.00;112049.66;5051433;28;20188;-76
2022/08/28 01:03:44;;;;;;;10.63;9.53;;;23.30;82.50;;;-142.21;100.00;112049.66;5051172;28;20221;-76
2022/08/28 01:06:14;;;;;;;10.00;8.90;;;23.30;82.40;;;-142.21;100.00;112049.66;5051691;28;20275;-75
2022/08/28 01:08:46;;;;;;;10.03;9.03;;;23.30;82.50;;;-142.21;100.00;112049.66;5050852;28;20566;-75
2022/08/28 01:11:17;;;;;;;9.80;8.90;;;23.30;82.40;;;-142.21;100.00;112049.66;5051490;28;20298;-75
2022/08/28 01:13:47;;;;;;;9.70;8.70;;;23.30;82.20;;;-142.21;100.00;112049.66;5051595;28;20609;-75
2022/08/28 01:16:17;;;;;;;12.50;8.87;;;23.30;82.00;;;-142.21;100.00;112049.66;5051548;28;20300;-75
2022/08/28 01:18:47;;;;;;;9.63;8.63;;;23.30;81.90;;;-142.21;100.00;112049.66;5051385;28;20631;-75
2022/08/28 01:21:24;;;;;;;13.87;8.90;;;23.30;82.00;;;-142.21;100.00;112049.66;5051508;28;20207;-75
2022/08/28 01:23:57;;;;;;;9.40;8.03;;;23.30;82.00;;;-142.21;100.00;112049.66;5051341;28;20194;-75
2022/08/28 01:26:26;;;;;;;10.00;9.00;;;23.30;81.80;;;-142.21;100.00;112049.66;5050876;28;20229;-75
2022/08/28 01:28:54;;;;;;;9.73;8.47;;;23.30;81.60;;;-142.21;100.00;112049.66;5051264;28;20209;-75
2022/08/28 01:31:21;;;;;;;8.33;7.53;;;23.30;81.50;;;-142.21;100.00;112049.66;5050777;28;20322;-75
2022/08/28 01:33:49;;;;;;;10.40;8.03;;;23.30;81.40;;;-142.21;100.00;112049.66;5052527;28;20277;-75
2022/08/28 01:36:17;;;;;;;9.47;8.47;;;23.30;81.50;;;-142.21;100.00;112049.66;5055211;28;20223;-75
2022/08/28 01:38:49;;;;;;;9.17;8.07;;;23.20;81.30;;;-142.21;100.00;112049.66;5054695;28;20626;-75
2022/08/28 01:41:18;;;;;;;9.20;8.10;;;23.20;82.20;;;-142.21;100.00;112049.66;5054016;28;20254;-75
2022/08/28 01:43:45;;;;;;;9.93;8.70;;;23.20;81.60;;;-142.21;100.00;112049.66;5054751;28;20217;-75
2022/08/28 01:46:13;;;;;;;8.37;7.53;;;23.20;81.60;;;-142.21;100.00;112049.66;5054826;28;20210;-75
2022/08/28 01:48:43;;;;;;;9.10;7.97;;;23.20;81.80;;;-142.21;100.00;112049.66;5054121;28;20260;-75
2022/08/28 01:51:13;;;;;;;9.70;8.70;;;23.20;81.80;;;-142.21;100.00;112049.66;5054619;28;20237;-75
2022/08/28 01:53:41;;;;;;;9.50;7.63;;;23.20;81.80;;;-142.21;100.00;112049.66;5054269;28;20243;-75
2022/08/28 01:56:13;;;;;;;8.77;7.87;;;23.20;81.80;;;-142.21;100.00;112049.66;5054549;28;20242;-75
2022/08/28 01:58:43;;;;;;;9.87;7.80;;;23.20;81.90;;;-142.21;100.00;112049.66;5053801;28;20331;-75
2022/08/28 02:01:12;;;;;;;9.13;8.10;;;23.10;81.60;;;-142.21;100.00;112049.66;5054604;28;20214;-75
2022/08/28 02:03:41;;;;;;;8.73;7.63;;;23.20;81.80;;;-142.21;100.00;112049.66;5054089;28;20245;-75
2022/08/28 02:06:09;;;;;;;11.50;8.10;;;23.10;81.60;;;-142.21;100.00;112049.66;5054710;28;20202;-75
2022/08/28 02:08:36;;;;;;;8.03;7.17;;;23.10;81.60;;;-142.21;100.00;112049.66;5053585;28;20292;-75
2022/08/28 02:11:05;;;;;;;9.27;8.43;;;23.10;81.70;;;-142.21;100.00;112049.66;5035793;28;20312;-75
2022/08/28 02:13:32;;;;;;;8.10;7.30;;;23.00;81.70;;;-142.21;100.00;112049.66;5053489;28;20245;-75
2022/08/28 02:16:01;;;;;;;8.33;7.53;;;23.00;81.70;;;-142.21;100.00;112049.66;5054179;28;20212;-75
2022/08/28 02:18:28;;;;;;;9.67;7.93;;;23.00;82.30;;;-142.21;100.00;112049.66;5053921;28;20222;-75
2022/08/28 02:20:56;;;;;;;9.10;7.77;;;23.00;81.50;;;-142.21;100.00;112049.66;5054130;28;20766;-75
2022/08/28 02:23:23;;;;;;;10.93;8.40;;;23.00;81.70;;;-142.21;100.00;112049.66;5054143;28;20257;-75
2022/08/28 02:25:50;;;;;;;9.07;7.77;;;22.90;81.60;;;-142.21;100.00;112049.66;5054038;28;20678;-75
2022/08/28 02:28:17;;;;;;;9.50;8.20;;;22.90;81.80;;;-142.21;100.00;112049.66;5054212;28;20214;-75
2022/08/28 02:30:44;;;;;;;9.00;8.00;;;22.90;81.90;;;-142.21;100.00;112049.66;5053631;28;20292;-75
2022/08/28 02:33:13;;;;;;;11.37;8.17;;;22.80;81.70;;;-142.21;100.00;112049.66;5053856;28;20351;-75
2022/08/28 02:35:41;;;;;;;9.67;8.33;;;22.80;81.90;;;-142.21;100.00;112049.66;5053310;28;20210;-75
2022/08/28 02:38:10;;;;;;;10.47;7.97;;;22.80;81.90;;;-142.21;100.00;112049.66;5053801;28;20206;-75
2022/08/28 02:40:38;;;;;;;9.50;8.50;;;22.80;82.00;;;-142.21;100.00;112049.66;5053162;28;20675;-77
2022/08/28 02:43:05;;;;;;;9.33;8.30;;;22.80;81.80;;;-142.21;100.00;112049.66;5053953;28;20213;-76
2022/08/28 02:45:32;;;;;;;9.13;8.10;;;22.80;81.90;;;-142.21;100.00;112049.66;5052019;28;20248;-75
2022/08/28 02:48:00;;;;;;;9.80;8.80;;;22.70;81.90;;;-142.21;100.00;112049.66;5053848;28;20241;-75
2022/08/28 02:50:31;;;;;;;11.13;7.87;;;22.70;82.00;;;-142.21;100.00;112049.66;5053351;28;20621;-75
2022/08/28 02:52:58;;;;;;;9.73;8.00;;;22.70;82.30;;;-142.21;100.00;112049.66;5053323;28;20259;-75
2022/08/28 02:55:26;;;;;;;9.70;7.60;;;22.70;82.30;;;-142.21;100.00;112049.66;5053215;28;20209;-76
2022/08/28 02:57:54;;;;;;;9.93;8.93;;;22.60;82.30;;;-142.21;100.00;112049.66;5053336;28;20248;-75
2022/08/28 03:00:25;;;;;;;9.70;7.90;;;22.60;82.40;;;-142.21;100.00;112049.66;5053429;28;20210;-75
2022/08/28 03:02:53;;;;;;;10.97;8.13;;;22.60;82.50;;;-142.21;100.00;112049.66;5053345;28;20260;-75
2022/08/28 03:05:24;;;;;;;8.70;7.90;;;22.60;82.60;;;-142.21;100.00;112049.66;5053691;28;20206;-75
2022/08/28 03:07:54;;;;;;;9.03;8.13;;;22.60;82.90;;;-142.21;100.00;112049.66;5053398;28;20233;-75
2022/08/28 03:10:22;;;;;;;9.57;8.57;;;22.60;82.90;;;-142.21;100.00;112049.66;5053817;28;20205;-75
2022/08/28 03:12:50;;;;;;;9.57;8.47;;;22.50;83.10;;;-142.21;100.00;112049.66;5052672;28;20244;-75
2022/08/28 03:15:18;;;;;;;9.40;8.40;;;22.60;83.20;;;-142.21;100.00;112049.66;5018580;28;20210;-75
2022/08/28 03:17:46;;;;;;;9.03;8.13;;;22.60;83.50;;;-142.21;100.00;112049.66;5052652;28;20233;-75
2022/08/28 03:20:14;;;;;;;10.63;7.83;;;22.60;83.70;;;-142.21;100.00;112049.66;5053315;28;20248;-75
2022/08/28 03:25:29;;;;;;;10.17;8.47;;;22.70;83.90;;;-142.21;100.00;112049.66;5053025;28;20193;-75
2022/08/28 03:27:56;;;;;;;10.70;8.17;;;22.70;84.10;;;-142.21;100.00;112049.66;5052776;28;20281;-76
2022/08/28 03:30:27;;;;;;;9.47;8.57;;;22.70;83.80;;;-142.21;100.00;112049.66;5052736;28;20201;-76
2022/08/28 03:32:54;;;;;;;9.50;8.50;;;22.70;84.20;;;-142.21;100.00;112049.66;5052881;28;20218;-75
2022/08/28 03:35:21;;;;;;;10.30;8.80;;;22.60;84.20;;;-142.21;100.00;112049.66;5053049;28;20259;-75
2022/08/28 03:37:49;;;;;;;10.30;9.20;;;22.70;84.40;;;-142.21;100.00;112049.66;5052043;28;20237;-76
2022/08/28 03:40:17;;;;;;;10.03;8.60;;;22.70;84.50;;;-142.21;100.00;112049.66;5053081;28;20267;-76
2022/08/28 03:42:46;;;;;;;9.43;8.53;;;22.70;84.30;;;-142.21;100.00;112049.66;5052418;28;20233;-75
2022/08/28 03:45:14;;;;;;;12.37;9.10;;;22.70;84.30;;;-142.21;100.00;112049.66;5052810;28;20630;-75
2022/08/28 03:47:42;;;;;;;9.07;8.17;;;22.70;84.40;;;-142.21;100.00;112049.66;5052192;28;20250;-75
2022/08/28 03:50:12;;;;;;;10.33;8.47;;;22.80;84.50;;;-142.21;100.00;112049.66;5052628;28;20202;-75
2022/08/28 03:52:40;;;;;;;8.97;8.07;;;22.80;84.40;;;-142.21;100.00;112049.66;5051728;28;20679;-75
2022/08/28 03:55:12;;;;;;;11.53;8.93;;;22.80;84.30;;;-142.21;100.00;112049.66;5052263;28;20300;-75
2022/08/28 03:57:40;;;;;;;10.60;8.37;;;22.80;84.60;;;-142.21;100.00;112049.66;5051608;28;20318;-75
2022/08/28 04:00:12;;;;;;;12.27;9.13;;;22.90;84.50;;;-142.21;100.00;112049.66;5052185;28;20264;-75
2022/08/28 04:02:40;;;;;;;10.33;8.50;;;22.90;84.50;;;-142.21;100.00;112049.66;5051758;28;20274;-75
2022/08/28 04:05:10;;;;;;;11.80;8.67;;;22.90;84.50;;;-142.21;100.00;112049.66;5052404;28;20207;-75
2022/08/28 04:07:38;;;;;;;9.53;8.53;;;22.90;84.50;;;-142.21;100.00;112049.66;5051741;28;20283;-75
2022/08/28 04:10:06;;;;;;;10.30;9.20;;;22.90;84.40;;;-142.21;100.00;112049.66;5052128;28;20670;-75
2022/08/28 04:12:34;;;;;;;11.37;8.93;;;22.90;84.90;;;-142.21;100.00;112049.66;5051413;28;20283;-75
2022/08/28 04:15:03;;;;;;;10.47;8.70;;;22.90;85.50;;;-142.21;100.00;112049.66;5052002;28;20214;-75
2022/08/28 04:17:31;;;;;;;13.03;8.90;;;22.90;84.80;;;-142.21;100.00;112049.66;5052344;28;20294;-75
2022/08/28 04:19:58;;;;;;;9.43;8.40;;;22.90;84.90;;;-142.21;100.00;112049.66;5051773;28;20297;-75
2022/08/28 04:22:26;;;;;;;11.20;9.23;;;22.90;84.90;;;-142.21;100.00;112049.66;5052295;28;20204;-75
2022/08/28 04:24:53;;;;;;;9.43;8.43;;;22.90;84.90;;;-142.21;100.00;112049.66;5051709;28;20225;-75
2022/08/28 04:27:21;;;;;;;10.13;9.03;;;23.00;84.90;;;-142.21;100.00;112049.66;5051958;28;20292;-76
2022/08/28 04:29:48;;;;;;;8.83;7.93;;;23.00;85.10;;;-142.21;100.00;112049.66;5051680;28;20631;-75
2022/08/28 04:32:16;;;;;;;9.63;8.67;;;23.00;85.20;;;-142.21;100.00;112049.66;5051727;28;20309;-75
2022/08/28 04:34:44;;;;;;;9.53;8.53;;;22.90;84.90;;;-142.21;100.00;112049.66;5051197;28;20260;-75
2022/08/28 04:37:12;;;;;;;11.47;8.33;;;23.00;85.10;;;-142.21;100.00;112049.66;5051700;28;20766;-75
2022/08/28 04:39:39;;;;;;;10.03;9.03;;;22.90;84.90;;;-142.21;100.00;112049.66;5051344;28;20202;-75
2022/08/28 04:42:06;;;;;;;9.97;8.93;;;23.00;85.00;;;-142.21;100.00;112049.66;5051990;28;20267;-75
2022/08/28 04:44:34;;;;;;;11.27;8.90;;;23.00;85.00;;;-142.21;100.00;112049.66;5051179;28;20245;-76
2022/08/28 04:47:02;;;;;;;8.80;7.90;;;23.00;84.90;;;-142.21;100.00;112049.66;5052114;28;20203;-75
2022/08/28 04:49:29;;;;;;;10.40;8.63;;;23.00;85.10;;;-142.21;100.00;112049.66;5051733;28;20284;-75
2022/08/28 04:51:57;;;;;;;9.33;8.43;;;23.00;85.00;;;-142.21;100.00;112049.66;5050909;28;20265;-75
2022/08/28 04:54:24;;;;;;;11.57;8.20;;;23.00;85.00;;;-142.21;100.00;112049.66;5051776;28;20202;-75
2022/08/28 04:56:52;;;;;;;10.23;8.57;;;23.00;85.00;;;-142.21;100.00;112049.66;5051370;28;20264;-74
2022/08/28 04:59:21;;;;;;;9.97;8.93;;;23.00;84.90;;;-142.21;100.00;112049.66;5051301;28;20242;-76
2022/08/28 05:01:48;;;;;;;9.00;8.10;;;23.00;85.00;;;-142.21;100.00;112049.66;5051208;28;20201;-75
2022/08/28 05:04:16;;;;;;;9.30;8.40;;;23.00;84.90;;;-142.21;100.00;112049.66;5051590;28;20259;-75
2022/08/28 05:06:45;;;;;;;12.43;8.93;;;23.00;85.00;;;-142.21;100.00;112049.66;5016586;28;20215;-76
2022/08/28 05:09:21;;;;;;;9.50;8.60;;;23.00;85.00;;;-142.21;100.00;112049.66;5053625;28;20204;-75
2022/08/28 05:11:49;;;;;;;9.70;7.53;;;23.00;85.20;;;-142.21;100.00;112049.66;5054790;28;20746;-75
2022/08/28 05:14:16;;;;;;;9.23;8.17;;;23.00;85.20;;;-142.21;100.00;112049.66;5055294;28;20205;-74
2022/08/28 05:16:47;;;;;;;9.03;7.63;;;23.10;85.10;;;-142.21;100.00;112049.66;5054730;28;20218;-75
2022/08/28 05:19:17;;;;;;;9.10;8.23;;;23.10;85.10;;;-142.21;100.00;112049.66;5055126;28;20234;-75
2022/08/28 05:21:50;;;;;;;10.07;8.57;;;23.10;85.20;;;-142.21;100.00;112049.66;5055036;28;20260;-75
2022/08/28 05:24:20;;;;;;;10.27;9.17;;;23.10;86.00;;;-142.21;100.00;112049.66;5052592;28;20216;-75
2022/08/28 05:26:47;;;;;;;9.90;8.90;;;23.10;85.10;;;-142.21;100.00;112049.66;5054848;28;20300;-75
2022/08/28 05:29:15;;;;;;;9.03;8.17;;;23.20;85.00;;;-142.21;100.00;112049.66;5055282;28;20217;-75
2022/08/28 05:31:42;;;;;;;12.63;9.10;;;23.20;84.90;;;-142.21;100.00;112049.66;5054280;28;20259;-75
2022/08/28 05:34:10;;;;;;;8.97;8.07;;;23.20;84.70;;;-142.21;100.00;112049.66;5054896;28;20244;-75
2022/08/28 05:36:39;;;;;;;9.50;8.53;;;23.20;84.60;;;-142.21;100.00;112049.66;5054663;28;20653;-75
2022/08/28 05:39:09;;;;;;;9.63;8.63;;;23.30;84.90;;;-142.21;100.00;112049.66;5055325;28;20275;-75
2022/08/28 05:41:42;;;;;;;10.20;9.20;;;23.20;84.80;;;-142.21;100.00;112049.66;5054299;28;20260;-75
2022/08/28 05:44:12;;;;;;;11.43;8.53;;;23.20;84.80;;;-142.21;100.00;112049.66;5055187;28;20277;-75
2022/08/28 05:46:45;;;;;;;10.03;8.70;;;23.20;84.70;;;-142.21;100.00;112049.66;5054538;28;20256;-75
2022/08/28 05:49:13;;;;;;;10.73;8.00;;;23.30;85.00;;;-142.21;100.00;112049.66;5054853;28;20231;-75
2022/08/28 05:51:42;;;;;;;10.23;8.60;;;23.30;84.80;;;-142.21;100.00;112049.66;5054341;28;20265;-75
2022/08/28 05:54:11;;;;;;;11.33;8.57;;;23.30;84.60;;;-142.21;100.00;112049.66;5054983;28;20206;-75
2022/08/28 05:56:43;;;;;;;8.90;8.00;;;23.30;84.70;;;-142.21;100.00;112049.66;5054085;28;20292;-76
2022/08/28 05:59:11;;;;;;;10.13;8.10;;;23.40;84.60;;;-142.21;100.00;112049.66;5054558;28;20239;-76
2022/08/28 06:01:42;;;;;;;10.80;8.10;;;23.40;84.30;;;-142.21;100.00;112049.66;5054141;28;20245;-76
2022/08/28 06:04:14;;;;;;;11.93;8.10;;;23.40;84.00;;;-142.21;100.00;112049.66;5035975;28;20201;-75
2022/08/28 06:06:43;;;;;;;9.27;7.80;;;23.40;83.70;;;-142.21;100.00;112049.66;5054242;28;20189;-75
2022/08/28 06:09:14;;;;;;;9.03;7.40;;;23.40;83.30;;;-142.21;100.00;112049.66;5054612;28;20248;-76
2022/08/28 06:11:44;;;;;;;7.87;7.07;;;23.50;82.60;;;-142.21;100.00;112049.66;5054076;28;20196;-75
2022/08/28 06:14:13;;;;;;;7.60;6.90;;;23.50;82.20;;;-142.21;100.00;112049.66;5054976;28;20277;-75
2022/08/28 06:16:45;;;;;;;8.03;6.90;;;23.50;81.80;;;-142.21;100.00;112049.66;5053477;28;20214;-75
2022/08/28 06:19:16;;;;;;;7.23;6.53;;;23.50;81.30;;;-142.21;100.00;112049.66;5054101;28;20188;-75
2022/08/28 06:21:45;;;;;;;6.70;6.07;;;23.50;80.80;;;-142.21;100.00;112049.66;5053814;28;20194;-75
2022/08/28 06:24:13;;;;;;;6.77;6.17;;;23.50;80.60;;;-142.21;100.00;112049.66;5054434;28;20211;-76
2022/08/28 06:26:42;;;;;;;7.90;6.53;;;23.50;80.30;;;-142.21;100.00;112049.66;5053464;28;20778;-75
2022/08/28 06:29:12;;;;;;;9.40;6.20;;;23.50;80.00;;;-142.21;100.00;112049.66;5054026;28;20716;-76
2022/08/28 06:31:39;;;;;;;6.60;6.00;;;23.60;79.80;;;-142.21;100.00;112049.66;5053543;28;20202;-76
2022/08/28 06:34:08;;;;;;;11.80;6.40;;;23.60;79.60;;;-142.21;100.00;112049.66;5053838;28;20226;-76
2022/08/28 06:36:40;;;;;;;7.27;6.17;;;23.60;79.50;;;-142.21;100.00;112049.66;5054062;28;20229;-75
2022/08/28 06:39:10;;;;;;;5.93;5.43;;;23.60;79.40;;;-142.21;100.00;112049.66;5054326;28;20560;-76
2022/08/28 06:41:41;;;;;;;7.37;6.43;;;23.60;79.40;;;-142.21;100.00;112049.66;5054026;28;20198;-76
2022/08/28 06:44:13;;;;;;;7.50;5.90;;;23.70;79.50;;;-142.21;100.00;112049.66;5053917;28;20271;-75
2022/08/28 06:46:41;;;;;;;6.50;5.80;;;23.70;79.70;;;-142.21;100.00;112049.66;5053114;28;20196;-75
2022/08/28 06:49:09;;;;;;;6.60;5.90;;;23.80;79.20;;;-142.21;100.00;112049.66;5053655;28;20206;-76
2022/08/28 06:51:36;;;;;;;6.40;5.80;;;23.80;78.70;;;-142.21;100.00;112049.66;5053811;28;20212;-75
2022/08/28 06:54:05;;;;;;;7.47;6.10;;;23.80;78.50;;;-142.21;100.00;112049.66;5053221;28;20231;-76
2022/08/28 06:56:33;;;;;;;7.40;5.57;;;23.80;78.50;;;-142.21;100.00;112049.66;5053717;28;20204;-76
2022/08/28 06:59:00;;;;;;;7.23;6.53;;;23.90;78.50;;;-142.21;100.00;112049.66;5052736;28;20323;-75
2022/08/28 07:01:32;;;;;;;6.73;5.87;;;24.00;78.20;;;-142.21;100.00;112049.66;5053621;28;20260;-76
2022/08/28 07:04:04;;;;;;;6.17;5.50;;;24.00;78.30;;;-142.21;100.00;112049.66;5053092;28;20290;-75
2022/08/28 07:06:34;;;;;;;7.50;5.93;;;24.00;77.90;;;-142.21;100.00;112049.66;5053559;28;20195;-76
2022/08/28 07:09:04;;;;;;;6.40;5.07;;;24.10;77.60;;;-142.21;100.00;112049.66;5052748;28;20235;-75
2022/08/28 07:11:34;;;;;;;5.10;4.67;;;24.20;76.90;;;-142.21;100.00;112049.66;5053560;28;20202;-76
2022/08/28 07:14:02;;;;;;;7.63;5.03;;;24.20;76.10;;;-142.21;100.00;112049.66;5052592;28;20230;-76
2022/08/28 07:16:36;;;;;;;6.40;4.80;;;24.20;75.50;;;-142.21;99.49;112049.66;5053080;28;20709;-76
2022/08/28 07:19:05;;;;;;;5.60;4.43;;;24.30;75.20;;;-142.21;98.87;112049.66;5052846;28;20318;-75
2022/08/28 07:21:35;;;;;;;6.83;4.30;;;24.40;74.70;;;-142.21;98.97;112049.66;5053314;28;20628;-75
2022/08/28 07:24:04;;;;;;;5.07;4.07;;;24.40;74.30;;;-142.21;99.00;112049.66;5052686;28;20251;-75
2022/08/28 07:26:32;;;;;;;5.50;4.93;;;24.50;74.30;;;-142.21;98.47;112049.66;5052834;28;20214;-75
2022/08/28 07:29:01;;;;;;;5.63;4.80;;;24.50;74.10;;;-142.21;97.67;112049.66;5052506;28;20197;-76
2022/08/28 07:31:30;;;;;;;6.33;5.00;;;24.50;74.40;;;-142.21;97.78;112049.66;5052494;28;20259;-75
2022/08/28 07:33:57;;;;;;;4.90;4.50;;;24.60;73.50;;;-142.21;97.12;112049.66;5052401;28;20322;-75
2022/08/28 07:36:28;;;;;;;5.40;4.73;;;24.60;73.20;;;-142.21;97.92;112049.66;5052597;28;20259;-75
2022/08/28 07:38:59;;;;;;;6.53;4.33;;;24.60;73.30;;;-142.21;98.19;112049.66;5052480;28;20218;-76
2022/08/28 07:41:29;;;;;;;6.20;4.53;;;24.70;73.50;;;-142.21;97.65;112049.66;5052453;28;20288;-76
2022/08/28 07:46:44;;;;;;;6.90;4.87;;;24.80;72.60;;;-142.21;96.35;112049.66;5052655;28;20263;-75
2022/08/28 07:49:14;;;;;;;6.73;4.67;;;24.90;72.40;;;-142.21;96.04;112049.66;5052827;28;20210;-75
2022/08/28 07:51:41;;;;;;;5.33;4.63;;;24.90;73.00;;;-142.21;95.93;112049.66;5052685;28;20202;-76
2022/08/28 07:54:09;;;;;;;4.33;3.93;;;24.90;72.30;;;-142.21;95.38;112049.66;5052264;28;20264;-76
2022/08/28 07:56:39;;;;;;;4.90;4.27;;;25.00;72.00;;;-142.21;95.55;112049.66;5052592;28;20248;-75
2022/08/28 07:59:09;;;;;;;5.20;4.70;;;25.10;71.90;;;-142.21;95.39;112049.66;5051518;28;20325;-76
2022/08/28 08:01:43;;;;;;;5.60;4.97;;;25.20;72.00;;;-142.21;94.80;112049.66;5052273;28;20198;-75
2022/08/28 08:04:12;;;;;;;6.17;4.37;;;25.20;71.40;;;-142.21;95.02;112049.66;5052620;28;20284;-75
2022/08/28 08:06:42;;;;;;;6.33;4.87;;;25.30;71.30;;;-142.21;95.39;112049.66;5052129;28;20662;-74
2022/08/28 08:09:12;;;;;;;6.57;4.37;;;25.30;71.30;;;-142.21;94.68;112049.66;5052031;28;20237;-75
2022/08/28 08:11:39;;;;;;;6.13;5.17;;;25.40;71.10;;;-142.21;94.59;112049.66;5051865;28;20205;-75
2022/08/28 08:14:07;;;;;;;5.50;4.60;;;25.40;70.90;;;-142.21;94.25;112049.66;5051380;28;20268;-75
2022/08/28 08:16:44;;;;;;;7.07;4.73;;;25.40;70.80;;;-142.21;94.49;112049.66;5052188;28;20232;-75
2022/08/28 08:19:13;;;;;;;5.13;4.50;;;25.40;70.80;;;-142.21;95.10;112049.66;5052344;28;20281;-75
2022/08/28 08:21:43;;;;;;;7.47;5.03;;;25.40;70.90;;;-142.21;95.14;112049.66;5052188;28;20571;-75
2022/08/28 08:24:11;;;;;;;8.40;5.37;;;25.40;70.90;;;-142.21;93.83;112049.66;5052205;28;20198;-76
2022/08/28 08:26:44;;;;;;;5.47;4.77;;;25.40;70.50;;;-142.21;94.79;112049.66;5051989;28;20252;-75
2022/08/28 08:29:12;;;;;;;5.33;4.23;;;25.40;70.70;;;-142.21;93.36;112049.66;5052162;28;20593;-75
2022/08/28 08:31:40;;;;;;;8.47;4.63;;;25.40;70.00;;;-142.21;93.74;112049.66;5052028;28;20607;-75
2022/08/28 08:34:10;;;;;;;4.53;4.13;;;25.40;70.00;;;-142.21;94.47;112049.66;5032579;28;20226;-74
2022/08/28 08:36:39;;;;;;;5.47;4.53;;;25.50;70.40;;;-142.21;93.37;112049.66;5052231;28;20283;-75
2022/08/28 08:39:07;;;;;;;5.10;4.60;;;25.60;69.80;;;-142.21;93.98;112049.66;5051101;28;20224;-75
2022/08/28 08:41:46;;;;;;;6.37;4.70;;;25.70;70.10;;;-142.21;92.31;112049.66;5051489;28;20302;-76
2022/08/28 08:44:26;;;;;;;5.50;4.63;;;25.80;69.10;;;-142.21;91.39;112049.66;5050818;28;20186;-76
2022/08/28 08:47:07;;;;;;;6.43;4.47;;;26.10;69.10;;;-142.21;90.55;112049.66;5051355;28;20263;-76
2022/08/28 08:49:39;;;;;;;4.47;4.07;;;26.30;68.50;;;-142.21;89.12;112049.66;5052033;28;20297;-74
2022/08/28 08:52:51;;;;;;;5.20;4.70;;;26.40;67.70;;;-142.21;87.35;112049.66;5050955;28;20631;-74
2022/08/28 08:55:27;;;;;;;6.67;4.63;;;26.50;66.10;;;-142.21;87.18;112049.66;4990302;28;20633;-74
2022/08/28 08:58:04;;;;;;;5.10;4.30;;;26.70;66.10;;;-142.21;88.01;112049.66;5042528;28;20652;-75
2022/08/28 09:00:38;;;;;;;5.57;4.70;;;26.80;66.40;;;-142.21;86.26;112049.66;5051940;28;20189;-76
2022/08/28 09:03:14;;;;;;;7.40;4.43;;;26.90;65.40;;;-142.21;85.11;112049.66;5050824;28;20236;-75
2022/08/28 09:05:54;;;;;;;5.07;4.57;;;27.10;65.00;;;-142.21;87.48;112049.66;5051498;28;20195;-75
2022/08/28 09:08:34;;;;;;;6.63;4.10;;;27.20;65.70;;;-142.21;86.10;112049.66;5051495;28;20259;-74
2022/08/28 09:11:14;;;;;;;6.73;4.13;;;27.30;64.80;;;-142.21;84.99;112049.66;5050774;28;20204;-74
2022/08/28 09:13:55;;;;;;;4.50;3.83;;;27.40;64.30;;;-142.21;82.16;112049.66;5051156;28;20671;-74
2022/08/28 09:16:31;;;;;;;4.60;4.20;;;27.50;62.80;;;-142.21;81.76;112049.66;5051435;28;20198;-75
2022/08/28 09:19:01;;;;;;;6.80;4.30;;;27.50;62.30;;;-142.21;81.82;112049.66;5050801;28;20194;-74
2022/08/28 09:21:37;;;;;;;4.87;4.47;;;27.50;62.40;;;-142.21;82.39;112049.66;5051582;28;20248;-74
2022/08/28 09:24:16;;;;;;;5.73;4.77;;;27.30;62.20;;;-142.21;81.95;112049.66;5051007;28;20236;-74
2022/08/28 09:26:51;;;;;;;6.07;4.30;;;27.30;61.90;;;-142.21;81.26;112049.66;5051226;28;20697;-75
2022/08/28 09:29:26;;;;;;;6.87;4.67;;;27.40;62.00;;;-142.21;83.29;112049.66;5051333;28;20201;-75
2022/08/28 09:31:54;;;;;;;5.77;4.30;;;27.40;62.50;;;-142.21;84.44;112049.66;5050682;28;20190;-76
2022/08/28 09:34:30;;;;;;;4.47;4.07;;;27.50;62.90;;;-142.21;82.09;112049.66;5051469;28;20281;-74
2022/08/28 09:37:00;;;;;;;7.60;4.77;;;27.60;61.90;;;-142.21;81.87;112049.66;5050487;28;20600;-75
2022/08/28 09:39:31;;;;;;;5.77;4.97;;;27.70;62.30;;;-142.21;78.10;112049.66;5049886;28;20291;-76
2022/08/28 09:45:17;;;;;;;5.07;3.90;;;27.90;60.00;;;-142.21;76.79;112049.66;5008803;28;20209;-75
2022/08/28 09:47:49;;;;;;;4.03;3.70;;;28.00;59.20;;;-142.21;79.76;112049.66;5009332;28;20195;-76
2022/08/28 09:50:32;;;;;;;6.43;4.00;;;28.20;60.30;;;-142.21;80.59;112049.66;5031756;28;20218;-75
2022/08/28 09:53:19;;;;;;;5.07;4.37;;;28.30;60.80;;;-142.21;78.34;112049.66;5050182;28;20637;-75
2022/08/28 09:55:59;;;;;;;4.80;4.30;;;28.40;59.50;;;-142.21;77.53;112049.66;5053530;28;20191;-75
2022/08/28 09:58:35;;;;;;;4.57;4.17;;;28.50;60.10;;;-142.21;77.58;112049.66;5054368;28;20243;-74
2022/08/28 10:01:30;;;;;;;4.63;4.20;;;28.50;59.50;;;-142.21;72.37;112049.66;5053999;28;20189;-75
2022/08/28 10:04:19;;;;;;;5.63;4.13;;;28.60;58.10;;;-142.21;71.01;112049.66;5054142;28;20203;-74
2022/08/28 10:06:54;;;;;;;5.97;4.10;;;28.70;57.20;;;-142.21;69.62;112049.66;5054467;28;20204;-75
2022/08/28 10:09:34;;;;;;;4.40;3.93;;;28.90;57.00;;;-142.21;68.08;112049.66;5054819;28;20245;-75
2022/08/28 10:12:12;;;;;;;4.60;4.07;;;28.80;56.10;;;-142.21;70.06;112049.66;5053652;28;20196;-75
2022/08/28 10:14:58;;;;;;;4.93;3.70;;;28.80;56.90;;;-142.21;72.42;112049.66;5054289;28;20241;-74
2022/08/28 10:17:41;;;;;;;5.90;4.20;;;29.00;57.50;;;-142.21;66.08;112049.66;5054548;28;20192;-75